Terminal Aerodrome Forecast
Issued by NWS

Home | Current Version | Previous Version | Text Only | Print | Product List | Glossary On
Versions: 1 2 3 4 5 6 7 8 9 10 11 12 13 14 15 16 17
000
FTUS43 KPAH 212300
TAFCGI
TAF
KCGI 212320Z 2200/2224 19006KT P6SM SCT250
     FM220800 VRB02KT 3SM BR SKC
      TEMPO 2208/2212 1/2SM FG
     FM221500 23007KT P6SM SCT060=

USA.gov is the U.S. government's official web portal to all federal, state and local government web resources and services.